sensor_id;sensor_type;location;lat;lon;timestamp;P1;durP1;ratioP1;P2;durP2;ratioP2
70153;SDS011;57519;51.494;-2.626;2023-03-13T00:01:55;5.83;;;3.23;;
70153;SDS011;57519;51.494;-2.626;2023-03-13T00:04:21;9.20;;;4.17;;
70153;SDS011;57519;51.494;-2.626;2023-03-13T00:06:46;7.90;;;3.47;;
70153;SDS011;57519;51.494;-2.626;2023-03-13T00:09:13;7.35;;;3.78;;
70153;SDS011;57519;51.494;-2.626;2023-03-13T00:11:43;11.70;;;4.00;;
70153;SDS011;57519;51.494;-2.626;2023-03-13T00:14:09;8.25;;;3.92;;
70153;SDS011;57519;51.494;-2.626;2023-03-13T00:16:35;9.60;;;3.97;;
70153;SDS011;57519;51.494;-2.626;2023-03-13T00:19:02;10.48;;;4.38;;
70153;SDS011;57519;51.494;-2.626;2023-03-13T00:21:27;9.00;;;3.77;;
70153;SDS011;57519;51.494;-2.626;2023-03-13T00:23:54;10.10;;;3.92;;
70153;SDS011;57519;51.494;-2.626;2023-03-13T00:26:20;6.63;;;3.65;;
70153;SDS011;57519;51.494;-2.626;2023-03-13T00:28:47;7.88;;;4.07;;
70153;SDS011;57519;51.494;-2.626;2023-03-13T00:31:25;8.85;;;3.80;;
70153;SDS011;57519;51.494;-2.626;2023-03-13T00:33:53;7.57;;;3.73;;
70153;SDS011;57519;51.494;-2.626;2023-03-13T00:36:29;9.38;;;4.45;;
70153;SDS011;57519;51.494;-2.626;2023-03-13T00:38:56;11.07;;;4.00;;
70153;SDS011;57519;51.494;-2.626;2023-03-13T00:41:23;10.05;;;4.55;;
70153;SDS011;57519;51.494;-2.626;2023-03-13T00:43:56;10.93;;;3.93;;
70153;SDS011;57519;51.494;-2.626;2023-03-13T00:46:22;8.95;;;4.18;;
70153;SDS011;57519;51.494;-2.626;2023-03-13T00:48:49;6.67;;;4.00;;
70153;SDS011;57519;51.494;-2.626;2023-03-13T00:51:16;8.15;;;3.65;;
70153;SDS011;57519;51.494;-2.626;2023-03-13T00:53:43;11.23;;;4.35;;
70153;SDS011;57519;51.494;-2.626;2023-03-13T00:56:10;7.45;;;3.00;;
70153;SDS011;57519;51.494;-2.626;2023-03-13T00:58:37;8.55;;;4.05;;
70153;SDS011;57519;51.494;-2.626;2023-03-13T01:01:08;8.37;;;3.93;;
70153;SDS011;57519;51.494;-2.626;2023-03-13T01:03:43;6.78;;;2.90;;
70153;SDS011;57519;51.494;-2.626;2023-03-13T01:06:11;9.57;;;3.97;;
70153;SDS011;57519;51.494;-2.626;2023-03-13T01:08:38;7.95;;;3.20;;
70153;SDS011;57519;51.494;-2.626;2023-03-13T01:13:31;9.30;;;3.80;;
70153;SDS011;57519;51.494;-2.626;2023-03-13T01:16:04;15.38;;;5.10;;
70153;SDS011;57519;51.494;-2.626;2023-03-13T01:18:35;4.93;;;3.08;;
70153;SDS011;57519;51.494;-2.626;2023-03-13T01:21:02;8.95;;;3.55;;
70153;SDS011;57519;51.494;-2.626;2023-03-13T01:23:28;5.57;;;3.40;;
70153;SDS011;57519;51.494;-2.626;2023-03-13T01:25:54;9.45;;;3.22;;
70153;SDS011;57519;51.494;-2.626;2023-03-13T01:28:21;8.52;;;3.67;;
70153;SDS011;57519;51.494;-2.626;2023-03-13T01:30:47;7.05;;;3.63;;
70153;SDS011;57519;51.494;-2.626;2023-03-13T01:33:13;7.30;;;3.47;;
70153;SDS011;57519;51.494;-2.626;2023-03-13T01:35:38;8.03;;;3.80;;
70153;SDS011;57519;51.494;-2.626;2023-03-13T01:38:04;9.03;;;3.60;;
70153;SDS011;57519;51.494;-2.626;2023-03-13T01:40:29;6.83;;;3.30;;
70153;SDS011;57519;51.494;-2.626;2023-03-13T01:42:59;5.60;;;3.13;;
70153;SDS011;57519;51.494;-2.626;2023-03-13T01:48:23;6.80;;;3.40;;
70153;SDS011;57519;51.494;-2.626;2023-03-13T01:50:57;5.28;;;2.80;;
70153;SDS011;57519;51.494;-2.626;2023-03-13T01:53:25;4.60;;;2.42;;
70153;SDS011;57519;51.494;-2.626;2023-03-13T01:55:54;4.40;;;2.97;;
70153;SDS011;57519;51.494;-2.626;2023-03-13T01:58:20;6.50;;;3.00;;
70153;SDS011;57519;51.494;-2.626;2023-03-13T02:00:46;6.77;;;3.60;;
70153;SDS011;57519;51.494;-2.626;2023-03-13T02:03:13;9.57;;;3.35;;
70153;SDS011;57519;51.494;-2.626;2023-03-13T02:05:43;7.88;;;3.35;;
70153;SDS011;57519;51.494;-2.626;2023-03-13T02:08:16;3.95;;;2.75;;
70153;SDS011;57519;51.494;-2.626;2023-03-13T02:10:50;5.00;;;2.87;;
70153;SDS011;57519;51.494;-2.626;2023-03-13T02:13:19;4.40;;;3.20;;
70153;SDS011;57519;51.494;-2.626;2023-03-13T02:15:45;6.22;;;2.92;;
70153;SDS011;57519;51.494;-2.626;2023-03-13T02:18:11;7.37;;;3.10;;
70153;SDS011;57519;51.494;-2.626;2023-03-13T02:20:38;8.25;;;2.88;;
70153;SDS011;57519;51.494;-2.626;2023-03-13T02:25:41;5.18;;;3.00;;
70153;SDS011;57519;51.494;-2.626;2023-03-13T02:28:22;5.03;;;3.00;;
70153;SDS011;57519;51.494;-2.626;2023-03-13T02:30:52;6.13;;;2.97;;
70153;SDS011;57519;51.494;-2.626;2023-03-13T02:33:19;5.13;;;2.95;;
70153;SDS011;57519;51.494;-2.626;2023-03-13T02:35:46;6.93;;;3.38;;
70153;SDS011;57519;51.494;-2.626;2023-03-13T02:38:15;4.07;;;2.80;;
70153;SDS011;57519;51.494;-2.626;2023-03-13T02:40:45;7.93;;;3.50;;
70153;SDS011;57519;51.494;-2.626;2023-03-13T02:43:30;5.53;;;2.17;;
70153;SDS011;57519;51.494;-2.626;2023-03-13T02:46:11;6.25;;;3.35;;
70153;SDS011;57519;51.494;-2.626;2023-03-13T02:48:41;6.25;;;3.03;;
70153;SDS011;57519;51.494;-2.626;2023-03-13T02:51:17;6.22;;;2.90;;
70153;SDS011;57519;51.494;-2.626;2023-03-13T02:53:43;5.50;;;3.00;;
70153;SDS011;57519;51.494;-2.626;2023-03-13T02:56:11;7.47;;;3.27;;
70153;SDS011;57519;51.494;-2.626;2023-03-13T02:58:38;5.32;;;3.28;;
70153;SDS011;57519;51.494;-2.626;2023-03-13T03:01:04;4.18;;;3.05;;
70153;SDS011;57519;51.494;-2.626;2023-03-13T03:03:33;5.28;;;2.97;;
70153;SDS011;57519;51.494;-2.626;2023-03-13T03:06:01;5.03;;;2.90;;
70153;SDS011;57519;51.494;-2.626;2023-03-13T03:08:27;3.77;;;2.83;;
70153;SDS011;57519;51.494;-2.626;2023-03-13T03:10:53;4.32;;;2.78;;
70153;SDS011;57519;51.494;-2.626;2023-03-13T03:13:18;5.17;;;2.43;;
70153;SDS011;57519;51.494;-2.626;2023-03-13T03:15:44;6.00;;;3.00;;
70153;SDS011;57519;51.494;-2.626;2023-03-13T03:18:10;6.90;;;3.37;;
70153;SDS011;57519;51.494;-2.626;2023-03-13T03:20:35;5.50;;;2.73;;
70153;SDS011;57519;51.494;-2.626;2023-03-13T03:23:01;8.67;;;3.17;;
70153;SDS011;57519;51.494;-2.626;2023-03-13T03:25:26;7.60;;;3.30;;
70153;SDS011;57519;51.494;-2.626;2023-03-13T03:27:52;8.80;;;3.90;;
70153;SDS011;57519;51.494;-2.626;2023-03-13T03:30:17;6.77;;;3.10;;
70153;SDS011;57519;51.494;-2.626;2023-03-13T03:32:43;6.00;;;3.20;;
70153;SDS011;57519;51.494;-2.626;2023-03-13T03:35:09;7.90;;;3.27;;
70153;SDS011;57519;51.494;-2.626;2023-03-13T03:37:34;9.77;;;3.85;;
70153;SDS011;57519;51.494;-2.626;2023-03-13T03:40:00;10.77;;;3.50;;
70153;SDS011;57519;51.494;-2.626;2023-03-13T03:45:01;6.30;;;3.43;;
70153;SDS011;57519;51.494;-2.626;2023-03-13T03:47:27;7.32;;;3.40;;
70153;SDS011;57519;51.494;-2.626;2023-03-13T03:49:52;12.43;;;4.20;;
70153;SDS011;57519;51.494;-2.626;2023-03-13T03:52:18;11.47;;;3.70;;
70153;SDS011;57519;51.494;-2.626;2023-03-13T03:54:43;9.80;;;3.43;;
70153;SDS011;57519;51.494;-2.626;2023-03-13T03:57:09;7.10;;;3.13;;
70153;SDS011;57519;51.494;-2.626;2023-03-13T03:59:35;11.20;;;3.83;;
70153;SDS011;57519;51.494;-2.626;2023-03-13T04:02:00;11.73;;;5.00;;
70153;SDS011;57519;51.494;-2.626;2023-03-13T04:04:26;15.07;;;5.30;;
70153;SDS011;57519;51.494;-2.626;2023-03-13T04:06:52;10.95;;;3.95;;
70153;SDS011;57519;51.494;-2.626;2023-03-13T04:09:18;13.05;;;4.22;;
70153;SDS011;57519;51.494;-2.626;2023-03-13T04:11:57;10.57;;;4.80;;
70153;SDS011;57519;51.494;-2.626;2023-03-13T04:14:23;13.50;;;4.30;;
70153;SDS011;57519;51.494;-2.626;2023-03-13T04:16:51;14.40;;;4.50;;
70153;SDS011;57519;51.494;-2.626;2023-03-13T04:19:17;12.90;;;3.80;;
70153;SDS011;57519;51.494;-2.626;2023-03-13T04:21:45;10.48;;;3.72;;
70153;SDS011;57519;51.494;-2.626;2023-03-13T04:24:11;14.53;;;4.77;;
70153;SDS011;57519;51.494;-2.626;2023-03-13T04:26:39;13.23;;;4.40;;
70153;SDS011;57519;51.494;-2.626;2023-03-13T04:29:04;10.85;;;3.60;;
70153;SDS011;57519;51.494;-2.626;2023-03-13T04:31:31;9.03;;;3.80;;
70153;SDS011;57519;51.494;-2.626;2023-03-13T04:33:58;8.82;;;3.88;;
70153;SDS011;57519;51.494;-2.626;2023-03-13T04:36:23;12.43;;;4.47;;
70153;SDS011;57519;51.494;-2.626;2023-03-13T04:41:16;14.38;;;4.05;;
70153;SDS011;57519;51.494;-2.626;2023-03-13T04:43:41;11.80;;;3.80;;
70153;SDS011;57519;51.494;-2.626;2023-03-13T04:46:07;10.00;;;4.10;;
70153;SDS011;57519;51.494;-2.626;2023-03-13T04:48:32;11.07;;;3.43;;
70153;SDS011;57519;51.494;-2.626;2023-03-13T04:50:58;18.60;;;4.60;;
70153;SDS011;57519;51.494;-2.626;2023-03-13T04:53:23;12.03;;;4.00;;
70153;SDS011;57519;51.494;-2.626;2023-03-13T04:55:49;12.55;;;4.43;;
70153;SDS011;57519;51.494;-2.626;2023-03-13T04:58:15;12.37;;;4.40;;
70153;SDS011;57519;51.494;-2.626;2023-03-13T05:00:41;17.00;;;4.53;;
70153;SDS011;57519;51.494;-2.626;2023-03-13T05:03:07;16.07;;;4.13;;
70153;SDS011;57519;51.494;-2.626;2023-03-13T05:05:33;14.15;;;4.55;;
70153;SDS011;57519;51.494;-2.626;2023-03-13T05:07:59;15.93;;;4.70;;
70153;SDS011;57519;51.494;-2.626;2023-03-13T05:10:25;19.77;;;4.80;;
70153;SDS011;57519;51.494;-2.626;2023-03-13T05:12:51;18.05;;;4.80;;
70153;SDS011;57519;51.494;-2.626;2023-03-13T05:15:16;12.87;;;4.47;;
70153;SDS011;57519;51.494;-2.626;2023-03-13T05:17:42;21.17;;;5.03;;
70153;SDS011;57519;51.494;-2.626;2023-03-13T05:20:08;14.20;;;4.17;;
70153;SDS011;57519;51.494;-2.626;2023-03-13T05:22:36;20.42;;;5.40;;
70153;SDS011;57519;51.494;-2.626;2023-03-13T05:25:02;15.27;;;4.10;;
70153;SDS011;57519;51.494;-2.626;2023-03-13T05:27:32;19.83;;;5.10;;
70153;SDS011;57519;51.494;-2.626;2023-03-13T05:29:57;19.40;;;5.05;;
70153;SDS011;57519;51.494;-2.626;2023-03-13T05:32:23;22.03;;;5.97;;
70153;SDS011;57519;51.494;-2.626;2023-03-13T05:34:48;16.47;;;4.87;;
70153;SDS011;57519;51.494;-2.626;2023-03-13T05:37:14;21.83;;;4.83;;
70153;SDS011;57519;51.494;-2.626;2023-03-13T05:39:42;16.38;;;4.43;;
70153;SDS011;57519;51.494;-2.626;2023-03-13T05:42:07;22.57;;;5.23;;
70153;SDS011;57519;51.494;-2.626;2023-03-13T05:44:33;24.15;;;5.53;;
70153;SDS011;57519;51.494;-2.626;2023-03-13T05:46:58;20.07;;;5.20;;
70153;SDS011;57519;51.494;-2.626;2023-03-13T05:49:24;18.15;;;4.85;;
70153;SDS011;57519;51.494;-2.626;2023-03-13T05:51:50;22.43;;;5.47;;
70153;SDS011;57519;51.494;-2.626;2023-03-13T05:54:18;21.60;;;5.95;;
70153;SDS011;57519;51.494;-2.626;2023-03-13T05:56:44;17.60;;;4.33;;
70153;SDS011;57519;51.494;-2.626;2023-03-13T05:59:12;22.10;;;4.93;;
70153;SDS011;57519;51.494;-2.626;2023-03-13T06:01:38;22.42;;;5.18;;
70153;SDS011;57519;51.494;-2.626;2023-03-13T06:04:06;18.90;;;4.87;;
70153;SDS011;57519;51.494;-2.626;2023-03-13T06:06:34;15.57;;;4.78;;
70153;SDS011;57519;51.494;-2.626;2023-03-13T06:16:45;23.75;;;5.10;;
70153;SDS011;57519;51.494;-2.626;2023-03-13T06:19:11;60.10;;;11.27;;
70153;SDS011;57519;51.494;-2.626;2023-03-13T06:21:40;22.13;;;5.17;;
70153;SDS011;57519;51.494;-2.626;2023-03-13T06:24:07;17.90;;;4.80;;
70153;SDS011;57519;51.494;-2.626;2023-03-13T06:26:33;19.08;;;4.68;;
70153;SDS011;57519;51.494;-2.626;2023-03-13T06:28:59;19.47;;;4.90;;
70153;SDS011;57519;51.494;-2.626;2023-03-13T06:31:24;15.03;;;5.40;;
70153;SDS011;57519;51.494;-2.626;2023-03-13T06:33:53;17.77;;;5.35;;
70153;SDS011;57519;51.494;-2.626;2023-03-13T06:36:22;21.95;;;5.35;;
70153;SDS011;57519;51.494;-2.626;2023-03-13T06:38:49;22.53;;;5.50;;
70153;SDS011;57519;51.494;-2.626;2023-03-13T06:41:14;15.73;;;4.18;;
70153;SDS011;57519;51.494;-2.626;2023-03-13T06:43:40;20.83;;;5.30;;
70153;SDS011;57519;51.494;-2.626;2023-03-13T06:46:05;15.10;;;4.60;;
70153;SDS011;57519;51.494;-2.626;2023-03-13T06:48:39;14.48;;;3.95;;
70153;SDS011;57519;51.494;-2.626;2023-03-13T06:51:11;14.57;;;5.27;;
70153;SDS011;57519;51.494;-2.626;2023-03-13T06:53:38;23.30;;;5.10;;
70153;SDS011;57519;51.494;-2.626;2023-03-13T06:56:04;20.02;;;5.20;;
70153;SDS011;57519;51.494;-2.626;2023-03-13T07:04:55;17.63;;;5.60;;
70153;SDS011;57519;51.494;-2.626;2023-03-13T07:07:20;19.50;;;5.17;;
70153;SDS011;57519;51.494;-2.626;2023-03-13T07:09:46;21.73;;;5.30;;
70153;SDS011;57519;51.494;-2.626;2023-03-13T07:12:11;16.03;;;5.00;;
70153;SDS011;57519;51.494;-2.626;2023-03-13T07:14:39;18.70;;;4.70;;
70153;SDS011;57519;51.494;-2.626;2023-03-13T07:17:10;21.03;;;5.33;;
70153;SDS011;57519;51.494;-2.626;2023-03-13T07:19:54;14.35;;;4.93;;
70153;SDS011;57519;51.494;-2.626;2023-03-13T07:26:21;18.63;;;5.38;;
70153;SDS011;57519;51.494;-2.626;2023-03-13T07:28:47;18.67;;;5.47;;
70153;SDS011;57519;51.494;-2.626;2023-03-13T07:31:13;19.23;;;5.13;;
70153;SDS011;57519;51.494;-2.626;2023-03-13T07:33:43;18.30;;;5.47;;
70153;SDS011;57519;51.494;-2.626;2023-03-13T07:36:10;17.50;;;4.67;;
70153;SDS011;57519;51.494;-2.626;2023-03-13T07:38:36;20.30;;;5.60;;
70153;SDS011;57519;51.494;-2.626;2023-03-13T07:41:02;13.10;;;4.40;;
70153;SDS011;57519;51.494;-2.626;2023-03-13T07:43:29;20.47;;;6.07;;
70153;SDS011;57519;51.494;-2.626;2023-03-13T07:46:03;18.60;;;5.07;;
70153;SDS011;57519;51.494;-2.626;2023-03-13T07:48:31;22.13;;;5.18;;
70153;SDS011;57519;51.494;-2.626;2023-03-13T07:50:58;23.77;;;5.28;;
70153;SDS011;57519;51.494;-2.626;2023-03-13T07:53:24;14.73;;;4.88;;
70153;SDS011;57519;51.494;-2.626;2023-03-13T07:56:00;17.57;;;5.10;;
70153;SDS011;57519;51.494;-2.626;2023-03-13T07:58:34;14.07;;;4.05;;
70153;SDS011;57519;51.494;-2.626;2023-03-13T08:01:06;15.55;;;5.00;;
70153;SDS011;57519;51.494;-2.626;2023-03-13T08:03:37;18.85;;;5.25;;
70153;SDS011;57519;51.494;-2.626;2023-03-13T08:06:04;25.80;;;6.22;;
70153;SDS011;57519;51.494;-2.626;2023-03-13T08:08:35;17.57;;;5.30;;
70153;SDS011;57519;51.494;-2.626;2023-03-13T08:11:17;24.80;;;5.47;;
70153;SDS011;57519;51.494;-2.626;2023-03-13T08:14:04;17.52;;;5.25;;
70153;SDS011;57519;51.494;-2.626;2023-03-13T08:16:30;26.00;;;5.17;;
70153;SDS011;57519;51.494;-2.626;2023-03-13T08:18:58;20.73;;;5.47;;
70153;SDS011;57519;51.494;-2.626;2023-03-13T08:21:26;22.77;;;5.68;;
70153;SDS011;57519;51.494;-2.626;2023-03-13T08:23:57;14.55;;;4.35;;
70153;SDS011;57519;51.494;-2.626;2023-03-13T08:26:26;20.75;;;4.97;;
70153;SDS011;57519;51.494;-2.626;2023-03-13T08:29:04;14.70;;;4.43;;
70153;SDS011;57519;51.494;-2.626;2023-03-13T08:31:33;18.95;;;4.82;;
70153;SDS011;57519;51.494;-2.626;2023-03-13T08:34:00;15.85;;;5.18;;
70153;SDS011;57519;51.494;-2.626;2023-03-13T08:36:26;20.52;;;5.13;;
70153;SDS011;57519;51.494;-2.626;2023-03-13T08:38:58;23.93;;;5.20;;
70153;SDS011;57519;51.494;-2.626;2023-03-13T08:41:26;21.08;;;5.25;;
70153;SDS011;57519;51.494;-2.626;2023-03-13T08:43:53;22.85;;;5.28;;
70153;SDS011;57519;51.494;-2.626;2023-03-13T08:46:19;18.13;;;5.53;;
70153;SDS011;57519;51.494;-2.626;2023-03-13T08:48:49;27.37;;;5.33;;
70153;SDS011;57519;51.494;-2.626;2023-03-13T08:51:16;22.27;;;5.35;;
70153;SDS011;57519;51.494;-2.626;2023-03-13T08:53:42;17.17;;;5.45;;
70153;SDS011;57519;51.494;-2.626;2023-03-13T08:56:12;31.92;;;5.53;;
70153;SDS011;57519;51.494;-2.626;2023-03-13T08:58:39;17.88;;;5.35;;
70153;SDS011;57519;51.494;-2.626;2023-03-13T09:01:09;18.70;;;5.60;;
70153;SDS011;57519;51.494;-2.626;2023-03-13T09:03:36;16.90;;;4.75;;
70153;SDS011;57519;51.494;-2.626;2023-03-13T09:06:02;15.73;;;5.25;;
70153;SDS011;57519;51.494;-2.626;2023-03-13T09:08:28;8.82;;;3.50;;
70153;SDS011;57519;51.494;-2.626;2023-03-13T09:10:58;17.30;;;4.47;;
70153;SDS011;57519;51.494;-2.626;2023-03-13T09:13:31;17.25;;;4.80;;
70153;SDS011;57519;51.494;-2.626;2023-03-13T09:16:03;16.60;;;5.57;;
70153;SDS011;57519;51.494;-2.626;2023-03-13T09:18:30;21.63;;;5.25;;
70153;SDS011;57519;51.494;-2.626;2023-03-13T09:20:56;21.42;;;5.70;;
70153;SDS011;57519;51.494;-2.626;2023-03-13T09:23:22;18.83;;;5.10;;
70153;SDS011;57519;51.494;-2.626;2023-03-13T09:25:50;26.98;;;7.20;;
70153;SDS011;57519;51.494;-2.626;2023-03-13T09:28:17;24.50;;;6.43;;
70153;SDS011;57519;51.494;-2.626;2023-03-13T09:30:42;15.37;;;5.17;;
70153;SDS011;57519;51.494;-2.626;2023-03-13T09:33:08;23.03;;;5.60;;
70153;SDS011;57519;51.494;-2.626;2023-03-13T09:35:33;22.93;;;6.47;;
70153;SDS011;57519;51.494;-2.626;2023-03-13T09:37:59;25.30;;;5.63;;
70153;SDS011;57519;51.494;-2.626;2023-03-13T09:40:24;28.63;;;6.47;;
70153;SDS011;57519;51.494;-2.626;2023-03-13T09:42:58;22.83;;;6.00;;
70153;SDS011;57519;51.494;-2.626;2023-03-13T09:48:03;33.05;;;7.10;;
70153;SDS011;57519;51.494;-2.626;2023-03-13T09:50:42;20.83;;;5.43;;
70153;SDS011;57519;51.494;-2.626;2023-03-13T09:53:18;34.40;;;6.40;;
70153;SDS011;57519;51.494;-2.626;2023-03-13T09:55:55;27.25;;;6.72;;
70153;SDS011;57519;51.494;-2.626;2023-03-13T09:58:22;23.70;;;5.75;;
70153;SDS011;57519;51.494;-2.626;2023-03-13T10:00:57;24.58;;;6.25;;
70153;SDS011;57519;51.494;-2.626;2023-03-13T10:03:28;18.40;;;5.30;;
70153;SDS011;57519;51.494;-2.626;2023-03-13T10:05:59;24.83;;;6.10;;
70153;SDS011;57519;51.494;-2.626;2023-03-13T10:08:35;25.48;;;5.47;;
70153;SDS011;57519;51.494;-2.626;2023-03-13T10:11:10;22.67;;;4.97;;
70153;SDS011;57519;51.494;-2.626;2023-03-13T10:14:01;25.50;;;4.78;;
70153;SDS011;57519;51.494;-2.626;2023-03-13T10:16:43;19.53;;;5.20;;
70153;SDS011;57519;51.494;-2.626;2023-03-13T10:19:15;19.73;;;6.30;;
70153;SDS011;57519;51.494;-2.626;2023-03-13T10:21:43;22.70;;;6.22;;
70153;SDS011;57519;51.494;-2.626;2023-03-13T10:24:27;25.35;;;5.07;;
70153;SDS011;57519;51.494;-2.626;2023-03-13T10:26:55;19.58;;;5.40;;
70153;SDS011;57519;51.494;-2.626;2023-03-13T10:29:22;23.77;;;4.93;;
70153;SDS011;57519;51.494;-2.626;2023-03-13T10:31:59;16.30;;;4.63;;
70153;SDS011;57519;51.494;-2.626;2023-03-13T10:34:30;17.48;;;5.22;;
70153;SDS011;57519;51.494;-2.626;2023-03-13T10:37:27;18.65;;;5.13;;
70153;SDS011;57519;51.494;-2.626;2023-03-13T10:39:53;19.20;;;4.93;;
70153;SDS011;57519;51.494;-2.626;2023-03-13T10:44:54;21.25;;;5.47;;
70153;SDS011;57519;51.494;-2.626;2023-03-13T10:47:20;19.25;;;5.35;;
70153;SDS011;57519;51.494;-2.626;2023-03-13T10:49:46;16.53;;;6.47;;
70153;SDS011;57519;51.494;-2.626;2023-03-13T10:52:28;28.23;;;5.53;;
70153;SDS011;57519;51.494;-2.626;2023-03-13T10:55:11;21.02;;;4.85;;
70153;SDS011;57519;51.494;-2.626;2023-03-13T10:57:41;22.77;;;5.77;;
70153;SDS011;57519;51.494;-2.626;2023-03-13T11:03:11;19.08;;;5.53;;
70153;SDS011;57519;51.494;-2.626;2023-03-13T11:05:42;22.70;;;6.10;;
70153;SDS011;57519;51.494;-2.626;2023-03-13T11:08:17;18.35;;;5.15;;
70153;SDS011;57519;51.494;-2.626;2023-03-13T11:10:55;25.77;;;5.23;;
70153;SDS011;57519;51.494;-2.626;2023-03-13T11:13:27;22.40;;;6.22;;
70153;SDS011;57519;51.494;-2.626;2023-03-13T11:15:56;26.05;;;5.53;;
70153;SDS011;57519;51.494;-2.626;2023-03-13T11:18:24;17.98;;;5.00;;
70153;SDS011;57519;51.494;-2.626;2023-03-13T11:21:00;24.60;;;5.50;;
70153;SDS011;57519;51.494;-2.626;2023-03-13T11:23:28;27.93;;;5.10;;
70153;SDS011;57519;51.494;-2.626;2023-03-13T11:28:57;26.08;;;6.38;;
70153;SDS011;57519;51.494;-2.626;2023-03-13T11:31:34;18.48;;;5.57;;
70153;SDS011;57519;51.494;-2.626;2023-03-13T11:34:16;17.40;;;4.80;;
70153;SDS011;57519;51.494;-2.626;2023-03-13T11:36:51;29.67;;;6.53;;
70153;SDS011;57519;51.494;-2.626;2023-03-13T11:42:04;19.67;;;5.43;;
70153;SDS011;57519;51.494;-2.626;2023-03-13T11:50:10;19.00;;;4.83;;
70153;SDS011;57519;51.494;-2.626;2023-03-13T11:55:35;22.15;;;5.28;;
70153;SDS011;57519;51.494;-2.626;2023-03-13T12:01:13;23.67;;;6.03;;
70153;SDS011;57519;51.494;-2.626;2023-03-13T12:14:40;19.75;;;5.22;;
70153;SDS011;57519;51.494;-2.626;2023-03-13T12:17:13;16.83;;;4.53;;
70153;SDS011;57519;51.494;-2.626;2023-03-13T12:19:46;20.20;;;5.32;;
70153;SDS011;57519;51.494;-2.626;2023-03-13T12:22:31;24.10;;;5.05;;
70153;SDS011;57519;51.494;-2.626;2023-03-13T12:25:23;22.60;;;5.78;;
70153;SDS011;57519;51.494;-2.626;2023-03-13T12:27:57;16.00;;;4.88;;
70153;SDS011;57519;51.494;-2.626;2023-03-13T12:30:32;20.10;;;5.33;;
70153;SDS011;57519;51.494;-2.626;2023-03-13T12:33:09;18.35;;;5.45;;
70153;SDS011;57519;51.494;-2.626;2023-03-13T12:35:38;22.13;;;5.47;;
70153;SDS011;57519;51.494;-2.626;2023-03-13T12:38:24;25.52;;;5.57;;
70153;SDS011;57519;51.494;-2.626;2023-03-13T12:43:41;20.80;;;5.03;;
70153;SDS011;57519;51.494;-2.626;2023-03-13T12:46:43;19.75;;;4.93;;
70153;SDS011;57519;51.494;-2.626;2023-03-13T12:49:11;20.80;;;5.32;;
70153;SDS011;57519;51.494;-2.626;2023-03-13T12:52:11;24.05;;;5.28;;
70153;SDS011;57519;51.494;-2.626;2023-03-13T12:59:59;18.83;;;4.60;;
70153;SDS011;57519;51.494;-2.626;2023-03-13T13:02:29;24.67;;;5.07;;
70153;SDS011;57519;51.494;-2.626;2023-03-13T13:04:56;23.15;;;5.25;;
70153;SDS011;57519;51.494;-2.626;2023-03-13T13:12:33;16.02;;;4.72;;
70153;SDS011;57519;51.494;-2.626;2023-03-13T13:15:02;21.08;;;6.15;;
70153;SDS011;57519;51.494;-2.626;2023-03-13T13:17:43;22.67;;;5.53;;
70153;SDS011;57519;51.494;-2.626;2023-03-13T13:22:52;21.40;;;5.00;;
70153;SDS011;57519;51.494;-2.626;2023-03-13T13:25:33;23.90;;;5.32;;
70153;SDS011;57519;51.494;-2.626;2023-03-13T13:28:10;16.10;;;4.88;;
70153;SDS011;57519;51.494;-2.626;2023-03-13T13:30:49;21.77;;;5.03;;
70153;SDS011;57519;51.494;-2.626;2023-03-13T13:38:34;14.13;;;4.75;;
70153;SDS011;57519;51.494;-2.626;2023-03-13T13:46:25;18.30;;;5.38;;
70153;SDS011;57519;51.494;-2.626;2023-03-13T14:01:29;17.52;;;4.50;;
70153;SDS011;57519;51.494;-2.626;2023-03-13T14:04:12;17.52;;;4.40;;
70153;SDS011;57519;51.494;-2.626;2023-03-13T14:06:44;14.57;;;5.33;;
70153;SDS011;57519;51.494;-2.626;2023-03-13T14:09:18;11.80;;;4.18;;
70153;SDS011;57519;51.494;-2.626;2023-03-13T14:11:59;15.52;;;3.80;;
70153;SDS011;57519;51.494;-2.626;2023-03-13T14:14:24;12.10;;;3.97;;
70153;SDS011;57519;51.494;-2.626;2023-03-13T14:16:51;11.38;;;4.28;;
70153;SDS011;57519;51.494;-2.626;2023-03-13T14:21:59;16.00;;;3.67;;
70153;SDS011;57519;51.494;-2.626;2023-03-13T14:24:35;16.25;;;5.18;;
70153;SDS011;57519;51.494;-2.626;2023-03-13T14:27:02;19.88;;;4.43;;
70153;SDS011;57519;51.494;-2.626;2023-03-13T14:29:39;16.38;;;5.10;;
70153;SDS011;57519;51.494;-2.626;2023-03-13T14:32:04;16.87;;;5.10;;
70153;SDS011;57519;51.494;-2.626;2023-03-13T14:34:31;24.15;;;5.68;;
70153;SDS011;57519;51.494;-2.626;2023-03-13T14:36:57;16.93;;;5.87;;
70153;SDS011;57519;51.494;-2.626;2023-03-13T14:42:08;19.30;;;5.50;;
70153;SDS011;57519;51.494;-2.626;2023-03-13T14:44:36;17.07;;;5.13;;
70153;SDS011;57519;51.494;-2.626;2023-03-13T14:47:15;23.40;;;7.55;;
70153;SDS011;57519;51.494;-2.626;2023-03-13T14:49:48;27.38;;;5.45;;
70153;SDS011;57519;51.494;-2.626;2023-03-13T14:52:33;17.77;;;4.85;;
70153;SDS011;57519;51.494;-2.626;2023-03-13T14:55:00;20.40;;;5.07;;
70153;SDS011;57519;51.494;-2.626;2023-03-13T14:57:29;25.15;;;4.80;;
70153;SDS011;57519;51.494;-2.626;2023-03-13T15:00:20;24.58;;;5.30;;
70153;SDS011;57519;51.494;-2.626;2023-03-13T15:05:41;17.92;;;4.63;;
70153;SDS011;57519;51.494;-2.626;2023-03-13T15:08:15;20.50;;;5.63;;
70153;SDS011;57519;51.494;-2.626;2023-03-13T15:10:42;21.63;;;5.90;;
70153;SDS011;57519;51.494;-2.626;2023-03-13T15:13:42;22.02;;;5.38;;
70153;SDS011;57519;51.494;-2.626;2023-03-13T15:16:01;15.63;;;4.45;;
70153;SDS011;57519;51.494;-2.626;2023-03-13T15:18:36;21.10;;;5.82;;
70153;SDS011;57519;51.494;-2.626;2023-03-13T15:23:37;17.65;;;4.88;;
70153;SDS011;57519;51.494;-2.626;2023-03-13T15:26:02;22.27;;;4.60;;
70153;SDS011;57519;51.494;-2.626;2023-03-13T15:28:29;17.77;;;4.97;;
70153;SDS011;57519;51.494;-2.626;2023-03-13T15:30:55;18.33;;;5.37;;
70153;SDS011;57519;51.494;-2.626;2023-03-13T15:33:22;25.27;;;5.72;;
70153;SDS011;57519;51.494;-2.626;2023-03-13T15:35:50;22.37;;;4.67;;
70153;SDS011;57519;51.494;-2.626;2023-03-13T15:38:16;22.80;;;5.53;;
70153;SDS011;57519;51.494;-2.626;2023-03-13T15:40:44;22.35;;;5.78;;
70153;SDS011;57519;51.494;-2.626;2023-03-13T15:43:09;27.07;;;5.50;;
70153;SDS011;57519;51.494;-2.626;2023-03-13T15:45:35;23.70;;;5.70;;
70153;SDS011;57519;51.494;-2.626;2023-03-13T15:50:50;21.48;;;4.97;;
70153;SDS011;57519;51.494;-2.626;2023-03-13T15:55:49;19.30;;;5.75;;
70153;SDS011;57519;51.494;-2.626;2023-03-13T15:58:18;18.00;;;5.80;;
70153;SDS011;57519;51.494;-2.626;2023-03-13T16:00:43;23.83;;;6.07;;
70153;SDS011;57519;51.494;-2.626;2023-03-13T16:03:20;17.40;;;5.03;;
70153;SDS011;57519;51.494;-2.626;2023-03-13T16:05:50;11.45;;;4.80;;
70153;SDS011;57519;51.494;-2.626;2023-03-13T16:08:18;18.87;;;5.07;;
70153;SDS011;57519;51.494;-2.626;2023-03-13T16:10:48;9.93;;;4.05;;
70153;SDS011;57519;51.494;-2.626;2023-03-13T16:13:14;15.27;;;4.68;;
70153;SDS011;57519;51.494;-2.626;2023-03-13T16:15:40;16.60;;;5.00;;
70153;SDS011;57519;51.494;-2.626;2023-03-13T16:18:06;13.83;;;4.10;;
70153;SDS011;57519;51.494;-2.626;2023-03-13T16:20:34;16.00;;;4.18;;
70153;SDS011;57519;51.494;-2.626;2023-03-13T16:22:59;11.50;;;3.93;;
70153;SDS011;57519;51.494;-2.626;2023-03-13T16:25:28;11.50;;;3.60;;
70153;SDS011;57519;51.494;-2.626;2023-03-13T16:27:55;14.65;;;4.60;;
70153;SDS011;57519;51.494;-2.626;2023-03-13T16:32:49;17.88;;;3.55;;
70153;SDS011;57519;51.494;-2.626;2023-03-13T16:35:15;12.68;;;3.80;;
70153;SDS011;57519;51.494;-2.626;2023-03-13T16:37:41;17.95;;;4.90;;
70153;SDS011;57519;51.494;-2.626;2023-03-13T16:40:14;10.60;;;3.93;;
70153;SDS011;57519;51.494;-2.626;2023-03-13T16:42:42;6.82;;;3.40;;